Terminal Aerodrome Forecast
Issued by NWS

Home | Current Version | Previous Version | Text Only | Print | Product List | Glossary On
Versions: 1 2 3 4 5 6 7 8 9 10 11 12 13 14 15 16
000
FTPA31 PHFO 280101 AAA
TAFHTO
TAF AMD
PHTO 280101Z 2801/2824 10009KT P6SM VCSH SCT025 BKN040 OVC060
      TEMPO 2801/2805 BKN025 OVC040
     FM280500 23005KT P6SM VCSH SCT025 BKN045
     FM282000 18010KT P6SM VCSH SCT025 BKN045=

USA.gov is the U.S. government's official web portal to all federal, state and local government web resources and services.